Historique des mesures à Cassis (13260), France
Quotidien Résumé Janvier 14, 2017 Unités:  Métrique    US   Métrique/US
« Précédent (Jour)
Suivant (Jour) »
Quotidien Hebdomadaire Mensuel Annuel Période au choix
  Maximum: Minimum: Moyenne:
Température: TemperatureC °C 4.1 °C 5.4 °C
Point de rosée: DewpointC °C -7.2 °C -3.8 °C
Humidité: Humidity % 42 % 48 %
Vitesse du vent: 0 km/h 8.9 km/h 25.9 km/h
Rafales: 0 km/h - -
Vent:- - SSW
Pression: PressurehPa hPa 1009.7 hPa -
Précipitations: 0.0 mm    
Historical Graphs
 
 
Mesures pour : Janvier 14, 2017
Heure Temperature Point de rosée Pression Vent Vitesse du vent Rafales Humidité Pluie (par heure) Conditions
TemperatureC °C DewpointC °C PressurehPa hPa Calm     Humidity % HourlyPrecipMM mm SoftwareType W/m2
00:11 5.5 °C -3.4 °C 1012.8 hPa NNE 8.9 km/h 9.3 km/h 53 % 0.0 mm open2300-1.11 W/m2
01:10 5.1 °C -3.3 °C 1012.4 hPa WNW 12.7 km/h 29 km/h 55 % 0.0 mm open2300-1.11 W/m2
02:12 5.4 °C -3.4 °C 1012.8 hPa WNW 13.2 km/h 13.2 km/h 53 % 0.0 mm open2300-1.11 W/m2
03:10 5.5 °C -4.1 °C 1013.1 hPa WNW 21.6 km/h 21.6 km/h 50 % 0.0 mm open2300-1.11 W/m2
04:11 5.0 °C -4.1 °C 1013.4 hPa North 29 km/h 44.1 km/h 52 % 0.0 mm open2300-1.11 W/m2
05:10 4.9 °C -4.2 °C 1013.4 hPa NE 9.3 km/h 25.4 km/h 52 % 0.0 mm open2300-1.11 W/m2
06:11 4.9 °C -4.2 °C 1012.8 hPa NW 29 km/h 29 km/h 52 % 0.0 mm open2300-1.11 W/m2
07:10 5.3 °C -3.3 °C 1011.4 hPa NNW 34.8 km/h 42.6 km/h 54 % 0.0 mm open2300-1.11 W/m2
08:11 5.3 °C -2.8 °C 1011.1 hPa NNW 22 km/h 73.5 km/h 56 % 0.0 mm open2300-1.11 W/m2
09:10 5.3 °C -2.6 °C 1011.7 hPa NW 40.7 km/h 46.3 km/h 57 % 0.0 mm open2300-1.11 W/m2
10:11 5.8 °C -2.1 °C 1011.7 hPa NNE 27.2 km/h 27.2 km/h 57 % 0.0 mm open2300-1.11 W/m2
11:10 6.2 °C -1.5 °C 1012.4 hPa NW 69.4 km/h 69.4 km/h 58 % 0.0 mm open2300-1.11 W/m2
12:11 7.1 °C -1.6 °C 1011.7 hPa North 34.1 km/h 47.3 km/h 54 % 0.0 mm open2300-1.11 W/m2
13:10 7.7 °C -1.3 °C 1010.4 hPa North 29 km/h 41.2 km/h 53 % 0.0 mm open2300-1.11 W/m2
14:11 7.6 °C -3.3 °C 1009.7 hPa NNW 29.5 km/h 29.5 km/h 46 % 0.0 mm open2300-1.11 W/m2
15:10 7.6 °C -3.7 °C 1010.0 hPa NNW 12.2 km/h 30.7 km/h 45 % 0.0 mm open2300-1.11 W/m2
16:11 7.3 °C -3.9 °C 1010.0 hPa North 30.1 km/h 39.9 km/h 45 % 0.0 mm open2300-1.11 W/m2
17:10 6.4 °C -4.4 °C 1009.7 hPa NW 23.8 km/h 52.8 km/h 46 % 0.0 mm open2300-1.11 W/m2
18:11 5.6 °C -5.5 °C 1010.4 hPa WNW 10.9 km/h 51.5 km/h 45 % 0.0 mm open2300-1.11 W/m2
19:10 5.1 °C -6.6 °C 1010.4 hPa NNE 44.6 km/h 44.6 km/h 43 % 0.0 mm open2300-1.11 W/m2
20:11 4.7 °C -7.2 °C 1010.7 hPa NW 33.6 km/h 57.9 km/h 42 % 0.0 mm open2300-1.11 W/m2
21:10 4.5 °C -6.8 °C 1012.1 hPa NNW 26.7 km/h 29.5 km/h 44 % 0.0 mm open2300-1.11 W/m2
22:11 4.2 °C -6.5 °C 1011.7 hPa WNW 40.7 km/h 40.7 km/h 46 % 0.0 mm open2300-1.11 W/m2
23:10 4.1 °C -6.0 °C 1012.4 hPa North 14.5 km/h 31.9 km/h 48 % 0.0 mm open2300-1.11 W/m2
Observations météo à CASSIS
WU-History script by Weather Underground - 1 mb